createdAt,value
2017-07-12T00:00:10.887Z,74.85
2017-07-12T00:01:10.926Z,75.23
2017-07-12T00:02:10.967Z,75.42
2017-07-12T00:03:11.007Z,75.32
2017-07-12T00:04:11.042Z,75.32
2017-07-12T00:05:11.085Z,75.42
2017-07-12T00:06:11.125Z,75.42
2017-07-12T00:07:11.164Z,75.04
2017-07-12T00:08:11.202Z,74.94
2017-07-12T00:09:11.237Z,75.13
2017-07-12T00:10:11.279Z,75.13
2017-07-12T00:11:11.322Z,74.94
2017-07-12T00:12:11.355Z,74.85
2017-07-12T00:13:11.397Z,74.75
2017-07-12T00:14:11.440Z,74.75
2017-07-12T00:15:11.478Z,74.85
2017-07-12T00:16:11.514Z,74.85
2017-07-12T00:17:11.573Z,74.94
2017-07-12T00:18:11.598Z,74.65
2017-07-12T00:19:11.638Z,74.65
2017-07-12T00:20:11.675Z,75.23
2017-07-12T00:21:11.710Z,75.23
2017-07-12T00:22:11.753Z,75.23
2017-07-12T00:23:11.790Z,75.13
2017-07-12T00:24:11.834Z,74.94
2017-07-12T00:25:11.873Z,75.42
2017-07-12T00:26:11.913Z,75.04
2017-07-12T00:27:11.945Z,75.04
2017-07-12T00:28:11.992Z,75.42
2017-07-12T00:29:12.026Z,75.29
2017-07-12T00:30:12.069Z,75.38
2017-07-12T00:31:12.110Z,75.29
2017-07-12T00:32:12.143Z,75.48
2017-07-12T00:33:12.190Z,75.38
2017-07-12T00:34:12.224Z,75.57
2017-07-12T00:35:12.268Z,75.87
2017-07-12T00:36:12.302Z,75.48
2017-07-12T00:37:12.344Z,75.67
2017-07-12T00:38:12.386Z,75.67
2017-07-12T00:39:12.419Z,75.48
2017-07-12T00:40:12.466Z,76.06
2017-07-12T00:41:12.502Z,76.25
2017-07-12T00:42:12.541Z,75.87
2017-07-12T00:43:12.581Z,76.25
2017-07-12T00:44:12.621Z,76.54
2017-07-12T00:45:12.661Z,76.64
2017-07-12T00:46:12.695Z,76.34
2017-07-12T00:47:12.740Z,76.64
2017-07-12T00:48:12.773Z,76.44
2017-07-12T00:49:12.818Z,76.92
2017-07-12T00:50:12.852Z,76.64
2017-07-12T00:51:12.890Z,76.82
2017-07-12T00:52:12.929Z,76.64
2017-07-12T00:53:12.969Z,76.54
2017-07-12T00:54:13.016Z,76.25
2017-07-12T00:55:13.054Z,77.01
2017-07-12T00:56:13.092Z,77.21
2017-07-12T00:57:13.131Z,77.11
2017-07-12T00:58:13.165Z,77.21
2017-07-12T00:59:13.211Z,77.01
2017-07-12T01:00:13.251Z,76.82
2017-07-12T01:01:13.288Z,77.4
2017-07-12T01:02:13.328Z,77.21
2017-07-12T01:03:13.365Z,77.36
2017-07-12T01:04:13.399Z,77.78
2017-07-12T01:05:13.440Z,77.5
2017-07-12T01:06:13.486Z,77.4
2017-07-12T01:07:13.521Z,77.5
2017-07-12T01:08:13.565Z,77.69
2017-07-12T01:09:13.602Z,77.78
2017-07-12T01:10:13.636Z,77.65
2017-07-12T01:11:13.679Z,77.84
2017-07-12T01:12:13.718Z,77.36
2017-07-12T01:13:13.753Z,77.84
2017-07-12T01:14:13.795Z,77.94
2017-07-12T01:15:13.834Z,77.84
2017-07-12T01:16:13.869Z,77.94
2017-07-12T01:17:13.914Z,78.13
2017-07-12T01:18:13.952Z,77.75
2017-07-12T01:19:13.991Z,77.65
2017-07-12T01:20:14.026Z,77.75
2017-07-12T01:21:14.123Z,78.13
2017-07-12T01:22:14.108Z,78.13
2017-07-12T01:23:14.148Z,78.03
2017-07-12T01:24:14.183Z,78.23
2017-07-12T01:25:14.228Z,78.32
2017-07-12T01:26:14.265Z,78.52
2017-07-12T01:27:14.303Z,78.32
2017-07-12T01:28:14.338Z,78.13
2017-07-12T01:29:14.381Z,78.52
2017-07-12T01:30:14.417Z,78.52
2017-07-12T01:31:14.462Z,78.61
2017-07-12T01:32:14.493Z,78.32
2017-07-12T01:33:14.536Z,78.7
2017-07-12T01:34:14.576Z,78.7
2017-07-12T01:35:14.617Z,78.7
2017-07-12T01:36:14.655Z,78.61
2017-07-12T01:37:14.689Z,79.19
2017-07-12T01:38:14.744Z,79.09
2017-07-12T01:39:14.768Z,78.8
2017-07-12T01:40:14.814Z,79.19
2017-07-12T01:41:14.846Z,79.19
2017-07-12T01:42:14.888Z,79.09
2017-07-12T01:43:14.928Z,79.19
2017-07-12T01:44:15.279Z,78.99
2017-07-12T01:45:15.015Z,78.9
2017-07-12T01:46:15.040Z,78.8
2017-07-12T01:47:15.085Z,78.99
2017-07-12T01:48:15.118Z,78.99
2017-07-12T01:49:15.163Z,78.9
2017-07-12T01:50:15.204Z,78.9
2017-07-12T01:51:15.240Z,78.9
2017-07-12T01:52:15.275Z,78.8
2017-07-12T01:53:15.320Z,78.8
2017-07-12T01:54:15.353Z,78.9
2017-07-12T01:55:15.395Z,78.8
2017-07-12T01:56:15.432Z,78.9
2017-07-12T01:57:15.474Z,78.61
2017-07-12T01:58:15.514Z,78.9
2017-07-12T01:59:15.547Z,78.9
2017-07-12T02:00:15.593Z,78.9
2017-07-12T02:01:15.632Z,78.9
2017-07-12T02:02:15.669Z,78.9
2017-07-12T02:03:15.708Z,78.9
2017-07-12T02:04:15.755Z,78.8
2017-07-12T02:05:15.782Z,78.9
2017-07-12T02:06:15.827Z,78.8
2017-07-12T02:07:15.860Z,79.09
2017-07-12T02:08:15.903Z,79.09
2017-07-12T02:09:15.941Z,79.09
2017-07-12T02:10:15.975Z,78.8
2017-07-12T02:11:16.015Z,79.19
2017-07-12T02:12:16.061Z,78.9
2017-07-12T02:13:16.098Z,79.09
2017-07-12T02:14:16.138Z,78.99
2017-07-12T02:15:16.178Z,79.19
2017-07-12T02:16:16.211Z,79.19
2017-07-12T02:17:16.257Z,79.09
2017-07-12T02:18:16.289Z,79.19
2017-07-12T02:19:16.335Z,79.14
2017-07-12T02:20:16.369Z,79.24
2017-07-12T02:21:16.411Z,78.99
2017-07-12T02:22:16.451Z,79.28
2017-07-12T02:23:16.487Z,78.86
2017-07-12T02:24:16.530Z,78.9
2017-07-12T02:25:16.567Z,78.86
2017-07-12T02:26:16.603Z,79.05
2017-07-12T02:27:16.641Z,79.05
2017-07-12T02:28:16.682Z,78.99
2017-07-12T02:29:16.724Z,79.05
2017-07-12T02:30:16.761Z,78.77
2017-07-12T02:31:16.807Z,78.67
2017-07-12T02:32:16.837Z,78.86
2017-07-12T02:33:16.879Z,78.67
2017-07-12T02:34:16.918Z,78.77
2017-07-12T02:35:16.957Z,78.86
2017-07-12T02:36:16.994Z,78.86
2017-07-12T02:37:17.030Z,78.86
2017-07-12T02:38:17.074Z,78.57
2017-07-12T02:39:17.106Z,78.38
2017-07-12T02:40:17.153Z,78.57
2017-07-12T02:41:17.191Z,78.86
2017-07-12T02:42:17.225Z,78.77
2017-07-12T02:43:17.268Z,78.57
2017-07-12T02:44:17.308Z,78.96
2017-07-12T02:45:17.341Z,78.86
2017-07-12T02:46:17.380Z,78.77
2017-07-12T02:47:17.423Z,78.67
2017-07-12T02:48:17.464Z,79.14
2017-07-12T02:49:17.498Z,79.24
2017-07-12T02:50:17.540Z,79.05
2017-07-12T02:51:17.576Z,79.24
2017-07-12T02:52:17.614Z,79.24
2017-07-12T02:53:17.658Z,79.14
2017-07-12T02:54:17.692Z,79.05
2017-07-12T02:55:17.737Z,79.14
2017-07-12T02:56:17.773Z,79.05
2017-07-12T02:57:17.808Z,79.24
2017-07-12T02:58:17.853Z,79.24
2017-07-12T02:59:17.890Z,79.05
2017-07-12T03:00:17.925Z,79.05
2017-07-12T03:01:17.967Z,79.34
2017-07-12T03:02:18.007Z,79.14
2017-07-12T03:03:18.046Z,79.05
2017-07-12T03:04:18.087Z,79.24
2017-07-12T03:05:18.121Z,79.53
2017-07-12T03:06:18.157Z,79.53
2017-07-12T03:07:18.202Z,78.96
2017-07-12T03:08:18.236Z,79.14
2017-07-12T03:09:18.279Z,78.96
2017-07-12T03:10:18.318Z,79.05
2017-07-12T03:11:18.351Z,79.24
2017-07-12T03:12:18.396Z,79.24
2017-07-12T03:13:18.435Z,79.24
2017-07-12T03:14:18.472Z,79.34
2017-07-12T03:15:18.513Z,79.24
2017-07-12T03:16:18.545Z,78.96
2017-07-12T03:17:18.589Z,78.96
2017-07-12T03:18:18.627Z,78.86
2017-07-12T03:19:18.662Z,78.77
2017-07-12T03:20:18.701Z,78.57
2017-07-12T03:21:18.749Z,79.05
2017-07-12T03:22:18.778Z,78.67
2017-07-12T03:23:18.827Z,78.96
2017-07-12T03:24:18.860Z,78.96
2017-07-12T03:25:18.901Z,79.14
2017-07-12T03:26:18.940Z,78.96
2017-07-12T03:27:18.979Z,78.96
2017-07-12T03:28:19.011Z,78.86
2017-07-12T03:29:19.054Z,78.86
2017-07-12T03:30:19.096Z,78.28
2017-07-12T03:31:19.130Z,78.38
2017-07-12T03:32:19.170Z,78.67
2017-07-12T03:33:19.206Z,78.47
2017-07-12T03:34:19.247Z,78
2017-07-12T03:35:19.288Z,78.52
2017-07-12T03:36:19.324Z,78.8
2017-07-12T03:37:19.375Z,79.57
2017-07-12T03:38:19.401Z,79.61
2017-07-12T03:39:19.445Z,78.84
2017-07-12T03:40:19.482Z,78.69
2017-07-12T03:41:19.523Z,78.78
2017-07-12T03:42:19.563Z,78.44
2017-07-12T03:43:19.604Z,77.81
2017-07-12T03:44:19.642Z,76.75
2017-07-12T03:45:19.681Z,75.63
2017-07-12T03:46:19.717Z,75.38
2017-07-12T03:47:19.764Z,74.41
2017-07-12T03:48:19.800Z,74.07
2017-07-12T03:49:19.843Z,73.39
2017-07-12T03:50:19.878Z,72.75
2017-07-12T03:51:19.921Z,72.75
2017-07-12T03:52:19.960Z,72.27
2017-07-12T03:53:20.000Z,71.34
2017-07-12T03:54:20.046Z,70.9
2017-07-12T03:55:20.081Z,70.13
2017-07-12T03:56:20.126Z,68.91
2017-07-12T03:57:20.166Z,67.94
2017-07-12T03:58:20.207Z,67.07
2017-07-12T03:59:20.250Z,66.59
2017-07-12T04:00:20.291Z,67.33
2017-07-12T04:01:20.331Z,67.78
2017-07-12T04:02:20.373Z,67.84
2017-07-12T04:03:20.412Z,67.36
2017-07-12T04:04:20.450Z,67.23
2017-07-12T04:05:20.618Z,67.13
2017-07-12T04:06:20.536Z,66.81
2017-07-12T04:07:20.571Z,67.39
2017-07-12T04:08:20.670Z,67.93
2017-07-12T04:09:20.650Z,67.77
2017-07-12T04:10:20.697Z,67.74
2017-07-12T04:11:20.734Z,67.35
2017-07-12T04:12:20.778Z,67.45
2017-07-12T04:13:20.819Z,67.26
2017-07-12T04:14:20.859Z,67.65
2017-07-12T04:15:20.893Z,67.65
2017-07-12T04:16:20.934Z,67.35
2017-07-12T04:17:20.973Z,68.32
2017-07-12T04:18:21.019Z,67.93
2017-07-12T04:19:21.060Z,67.58
2017-07-12T04:20:21.099Z,67.26
2017-07-12T04:21:21.134Z,67.29
2017-07-12T04:22:21.179Z,67.16
2017-07-12T04:23:21.214Z,66.97
2017-07-12T04:24:21.577Z,67.07
2017-07-12T04:25:21.294Z,67.07
2017-07-12T04:26:21.341Z,67.16
2017-07-12T04:27:21.378Z,67.26
2017-07-12T04:28:21.419Z,67.26
2017-07-12T04:29:21.457Z,67.45
2017-07-12T04:30:21.495Z,66.68
2017-07-12T04:31:21.536Z,66.65
2017-07-12T04:32:21.575Z,66.55
2017-07-12T04:33:21.620Z,67.13
2017-07-12T04:34:21.661Z,67.13
2017-07-12T04:35:21.700Z,67.13
2017-07-12T04:36:21.740Z,67.03
2017-07-12T04:37:21.774Z,67.13
2017-07-12T04:38:21.820Z,67.48
2017-07-12T04:39:21.854Z,67.77
2017-07-12T04:40:21.899Z,67.38
2017-07-12T04:41:21.939Z,67.38
2017-07-12T04:42:21.974Z,67.29
2017-07-12T04:43:22.022Z,67.68
2017-07-12T04:44:22.058Z,67.68
2017-07-12T04:45:22.098Z,67.19
2017-07-12T04:46:22.136Z,67.58
2017-07-12T04:47:22.178Z,67.38
2017-07-12T04:48:22.214Z,67.19
2017-07-12T04:49:22.259Z,67.58
2017-07-12T04:50:22.293Z,67.1
2017-07-12T04:51:22.335Z,67.38
2017-07-12T04:52:22.378Z,67.8
2017-07-12T04:53:22.414Z,67.61
2017-07-12T04:54:22.459Z,67.51
2017-07-12T04:55:22.496Z,67.51
2017-07-12T04:56:22.533Z,67.32
2017-07-12T04:57:22.578Z,67.22
2017-07-12T04:58:22.832Z,67.22
2017-07-12T04:59:22.652Z,67.22
2017-07-12T05:00:22.696Z,67.51
2017-07-12T05:01:22.737Z,67.51
2017-07-12T05:02:22.778Z,67.32
2017-07-12T05:03:22.815Z,67.51
2017-07-12T05:04:22.856Z,66.74
2017-07-12T05:05:22.899Z,67.13
2017-07-12T05:06:22.937Z,66.94
2017-07-12T05:07:22.971Z,67.03
2017-07-12T05:08:23.020Z,67.13
2017-07-12T05:09:23.058Z,67.13
2017-07-12T05:10:23.091Z,67.22
2017-07-12T05:11:23.137Z,67.51
2017-07-12T05:12:23.178Z,67.32
2017-07-12T05:13:23.211Z,67.03
2017-07-12T05:14:23.252Z,67.22
2017-07-12T05:15:23.297Z,67.22
2017-07-12T05:16:23.336Z,67.03
2017-07-12T05:17:23.375Z,67.13
2017-07-12T05:18:23.412Z,66.84
2017-07-12T05:19:23.454Z,67.22
2017-07-12T05:20:23.489Z,67.13
2017-07-12T05:21:23.532Z,67.03
2017-07-12T05:22:23.570Z,66.94
2017-07-12T05:23:23.610Z,67.13
2017-07-12T05:24:23.657Z,67.13
2017-07-12T05:25:23.691Z,67.22
2017-07-12T05:26:23.736Z,67.22
2017-07-12T05:27:23.774Z,67.03
2017-07-12T05:28:23.811Z,67.22
2017-07-12T05:29:23.855Z,67.03
2017-07-12T05:30:23.891Z,67.13
2017-07-12T05:31:23.930Z,67.07
2017-07-12T05:32:23.971Z,67.16
2017-07-12T05:33:24.012Z,66.39
2017-07-12T05:34:24.071Z,67.26
2017-07-12T05:35:24.091Z,66.78
2017-07-12T05:36:24.133Z,66.88
2017-07-12T05:37:24.552Z,66.88
2017-07-12T05:38:24.221Z,66.88
2017-07-12T05:39:24.491Z,66.88
2017-07-12T05:40:24.293Z,66.88
2017-07-12T05:41:24.785Z,66.78
2017-07-12T05:42:24.372Z,66.58
2017-07-12T05:43:24.417Z,66.24
2017-07-12T05:44:24.457Z,66.42
2017-07-12T05:45:24.491Z,66.24
2017-07-12T05:46:24.903Z,66.04
2017-07-12T05:47:24.580Z,66.24
2017-07-12T05:48:24.618Z,65.75
2017-07-12T05:49:24.660Z,66.24
2017-07-12T05:50:24.695Z,65.85
2017-07-12T05:51:24.741Z,65.56
2017-07-12T05:52:24.775Z,65.66
2017-07-12T05:53:24.823Z,65.66
2017-07-12T05:54:24.860Z,65.69
2017-07-12T05:55:24.901Z,65.2
2017-07-12T05:56:24.938Z,65.01
2017-07-12T05:57:24.983Z,65.01
2017-07-12T05:58:25.024Z,65.01
2017-07-12T05:59:25.064Z,65.11
2017-07-12T06:00:25.106Z,64.92
2017-07-12T06:01:25.142Z,65.11
2017-07-12T06:02:25.186Z,65.11
2017-07-12T06:03:25.231Z,65.3
2017-07-12T06:04:25.325Z,65.4
2017-07-12T06:05:25.306Z,64.92
2017-07-12T06:06:25.349Z,65.11
2017-07-12T06:07:25.384Z,65.11
2017-07-12T06:08:25.432Z,64.73
2017-07-12T06:09:25.466Z,64.73
2017-07-12T06:10:25.507Z,64.69
2017-07-12T06:11:25.551Z,65.27
2017-07-12T06:12:25.588Z,64.89
2017-07-12T06:13:25.635Z,64.98
2017-07-12T06:14:25.673Z,64.89
2017-07-12T06:15:25.712Z,65.37
2017-07-12T06:16:25.799Z,65.17
2017-07-12T06:17:25.794Z,65.08
2017-07-12T06:18:25.836Z,65.08
2017-07-12T06:19:25.908Z,65.08
2017-07-12T06:20:25.912Z,64.89
2017-07-12T06:21:25.957Z,65.37
2017-07-12T06:22:25.991Z,65.17
2017-07-12T06:23:26.037Z,65.33
2017-07-12T06:24:26.073Z,65.53
2017-07-12T06:25:26.117Z,65.81
2017-07-12T06:26:26.271Z,65.63
2017-07-12T06:27:26.269Z,65.63
2017-07-12T06:28:26.234Z,65.37
2017-07-12T06:29:26.279Z,65.46
2017-07-12T06:30:26.315Z,65.63
2017-07-12T06:31:26.354Z,65.63
2017-07-12T06:32:26.399Z,65.72
2017-07-12T06:33:26.439Z,65.85
2017-07-12T06:34:26.486Z,66.1
2017-07-12T06:35:26.516Z,66.04
2017-07-12T06:36:26.560Z,66.01
2017-07-12T06:37:26.601Z,65.81
2017-07-12T06:38:26.635Z,66.39
2017-07-12T06:39:26.680Z,66.33
2017-07-12T06:40:26.719Z,66.33
2017-07-12T06:41:27.860Z,66.42
2017-07-12T06:42:26.797Z,66.14
2017-07-12T06:43:26.837Z,65.94
2017-07-12T06:44:26.880Z,66.14
2017-07-12T06:45:26.917Z,66.04
2017-07-12T06:46:26.964Z,66.04
2017-07-12T06:47:27.002Z,66.14
2017-07-12T06:48:27.041Z,65.94
2017-07-12T06:49:27.083Z,66.52
2017-07-12T06:50:27.117Z,66.71
2017-07-12T06:51:27.164Z,66.42
2017-07-12T06:52:27.201Z,66.42
2017-07-12T06:53:27.240Z,66.24
2017-07-12T06:54:27.282Z,66.17
2017-07-12T06:55:27.320Z,66.42
2017-07-12T06:56:27.360Z,66.07
2017-07-12T06:57:27.407Z,66.75
2017-07-12T06:58:27.448Z,66.46
2017-07-12T06:59:27.485Z,66.65
2017-07-12T07:00:27.587Z,66.65
2017-07-12T07:01:27.568Z,66.46
2017-07-12T07:02:27.606Z,66.65
2017-07-12T07:03:27.644Z,66.46
2017-07-12T07:04:27.686Z,66.55
2017-07-12T07:05:27.729Z,66.55
2017-07-12T07:06:27.771Z,66.07
2017-07-12T07:07:27.813Z,66.07
2017-07-12T07:08:27.852Z,66.17
2017-07-12T07:09:27.889Z,66.36
2017-07-12T07:10:28.119Z,66.27
2017-07-12T07:11:27.976Z,65.98
2017-07-12T07:12:28.010Z,65.98
2017-07-12T07:13:28.082Z,66.17
2017-07-12T07:14:28.102Z,66.01
2017-07-12T07:15:28.133Z,66.01
2017-07-12T07:16:28.178Z,66.11
2017-07-12T07:17:28.219Z,66.11
2017-07-12T07:18:28.255Z,66.39
2017-07-12T07:19:28.295Z,65.91
2017-07-12T07:20:28.336Z,65.91
2017-07-12T07:21:28.386Z,66.3
2017-07-12T07:22:28.422Z,65.72
2017-07-12T07:23:28.459Z,65.43
2017-07-12T07:24:28.825Z,65.72
2017-07-12T07:25:28.544Z,65.91
2017-07-12T07:26:28.581Z,66.01
2017-07-12T07:27:28.627Z,65.81
2017-07-12T07:28:28.669Z,65.63
2017-07-12T07:29:28.705Z,65.63
2017-07-12T07:30:28.749Z,65.81
2017-07-12T07:31:28.786Z,65.81
2017-07-12T07:32:28.833Z,65.72
2017-07-12T07:33:28.866Z,65.53
2017-07-12T07:34:28.911Z,65.91
2017-07-12T07:35:28.954Z,65.91
2017-07-12T07:36:28.995Z,65.63
2017-07-12T07:37:29.030Z,65.81
2017-07-12T07:38:29.071Z,66.01
2017-07-12T07:39:29.155Z,66.04
2017-07-12T07:40:29.160Z,65.95
2017-07-12T07:41:29.194Z,65.66
2017-07-12T07:42:29.235Z,65.75
2017-07-12T07:43:29.282Z,65.85
2017-07-12T07:44:29.318Z,65.85
2017-07-12T07:45:29.366Z,65.85
2017-07-12T07:46:29.405Z,66.04
2017-07-12T07:47:29.441Z,65.66
2017-07-12T07:48:29.483Z,65.66
2017-07-12T07:49:29.594Z,65.85
2017-07-12T07:50:29.570Z,65.66
2017-07-12T07:51:29.612Z,65.3
2017-07-12T07:52:29.648Z,65.5
2017-07-12T07:53:29.697Z,65.01
2017-07-12T07:54:29.732Z,65.4
2017-07-12T07:55:29.778Z,65.5
2017-07-12T07:56:29.975Z,65.4
2017-07-12T07:57:29.855Z,65.01
2017-07-12T07:58:29.896Z,65.14
2017-07-12T07:59:29.939Z,64.86
2017-07-12T08:00:29.985Z,64.86
2017-07-12T08:01:30.022Z,64.08
2017-07-12T08:02:30.064Z,64.08
2017-07-12T08:03:30.110Z,64.47
2017-07-12T08:04:30.150Z,64.37
2017-07-12T08:05:30.220Z,64.08
2017-07-12T08:06:30.232Z,64.18
2017-07-12T08:07:30.273Z,63.89
2017-07-12T08:08:30.319Z,63.89
2017-07-12T08:09:30.355Z,63.7
2017-07-12T08:10:30.402Z,63.89
2017-07-12T08:11:30.440Z,63.89
2017-07-12T08:12:30.485Z,63.43
2017-07-12T08:13:30.524Z,64.4
2017-07-12T08:14:30.565Z,63.63
2017-07-12T08:15:30.612Z,63.24
2017-07-12T08:16:30.651Z,63.53
2017-07-12T08:17:30.702Z,63.43
2017-07-12T08:18:30.738Z,63.08
2017-07-12T08:19:30.776Z,63.15
2017-07-12T08:20:30.822Z,63.24
2017-07-12T08:21:30.868Z,63.47
2017-07-12T08:22:30.908Z,63.08
2017-07-12T08:23:30.952Z,63.79
2017-07-12T08:24:30.990Z,62.44
2017-07-12T08:25:31.043Z,62.27
2017-07-12T08:26:31.075Z,61.92
2017-07-12T08:27:31.135Z,61.36
2017-07-12T08:28:31.167Z,60.62
2017-07-12T08:29:31.214Z,60.04
2017-07-12T08:30:31.257Z,59.69
2017-07-12T08:31:31.303Z,58.55
2017-07-12T08:32:31.347Z,58.16
2017-07-12T08:33:31.393Z,58.16
2017-07-12T08:34:31.436Z,57.97
2017-07-12T08:35:31.481Z,57.42
2017-07-12T08:36:31.527Z,57.03
2017-07-12T08:37:31.573Z,56.45
2017-07-12T08:38:31.613Z,56.23
2017-07-12T08:39:31.662Z,56.23
2017-07-12T08:40:31.708Z,56.23
2017-07-12T08:41:31.746Z,55.74
2017-07-12T08:42:31.796Z,55.83
2017-07-12T08:43:31.833Z,55.74
2017-07-12T08:44:31.886Z,55.62
2017-07-12T08:45:31.924Z,55.71
2017-07-12T08:46:31.972Z,54.94
2017-07-12T08:47:32.011Z,54.91
2017-07-12T08:48:32.060Z,54.71
2017-07-12T08:49:32.101Z,54.81
2017-07-12T08:50:32.149Z,54.52
2017-07-12T08:51:32.201Z,55
2017-07-12T08:52:32.233Z,54.62
2017-07-12T08:53:32.283Z,54.52
2017-07-12T08:54:32.321Z,54.71
2017-07-12T08:55:32.374Z,54.62
2017-07-12T08:56:32.413Z,54.94
2017-07-12T08:57:32.460Z,55.35
2017-07-12T08:58:32.501Z,54.58
2017-07-12T08:59:32.547Z,53.95
2017-07-12T09:00:32.592Z,53.1
2017-07-12T09:01:32.644Z,53.13
2017-07-12T09:02:32.686Z,52.06
2017-07-12T09:03:32.734Z,51.87
2017-07-12T09:04:32.779Z,50.31
2017-07-12T09:05:32.825Z,50.6
2017-07-12T09:06:32.870Z,50.89
2017-07-12T09:07:32.917Z,50.6
2017-07-12T09:08:32.964Z,50.12
2017-07-12T09:09:33.007Z,50.02
2017-07-12T09:10:33.060Z,49.15
2017-07-12T09:11:33.096Z,49.12
2017-07-12T09:12:33.147Z,49.71
2017-07-12T09:13:33.193Z,49.41
2017-07-12T09:14:33.233Z,49.22
2017-07-12T09:15:33.280Z,49.32
2017-07-12T09:16:33.325Z,49.32
2017-07-12T09:17:33.374Z,49.41
2017-07-12T09:18:33.415Z,49.12
2017-07-12T09:19:33.462Z,48.73
2017-07-12T09:20:33.513Z,49.02
2017-07-12T09:21:33.552Z,49.12
2017-07-12T09:22:33.599Z,49.12
2017-07-12T09:23:33.645Z,48.47
2017-07-12T09:33:34.109Z,47.11
2017-07-12T09:34:34.152Z,46.52
2017-07-12T09:35:34.206Z,46.33
2017-07-12T09:36:34.244Z,45.94
2017-07-12T09:37:34.290Z,45.84
2017-07-12T09:38:34.342Z,46.14
2017-07-12T09:39:34.388Z,46.23
2017-07-12T09:40:34.433Z,45.84
2017-07-12T09:41:34.477Z,45.94
2017-07-12T09:42:34.528Z,45.36
2017-07-12T09:43:34.572Z,45.36
2017-07-12T09:44:34.621Z,45.45
2017-07-12T09:45:34.666Z,45.94
2017-07-12T09:46:34.706Z,46.14
2017-07-12T09:47:34.760Z,46.52
2017-07-12T09:48:34.802Z,45.57
2017-07-12T09:49:34.845Z,45.17
2017-07-12T09:50:34.898Z,45.36
2017-07-12T09:51:34.938Z,45.55
2017-07-12T09:52:34.987Z,45.36
2017-07-12T09:53:35.034Z,45.36
2017-07-12T09:54:35.085Z,44.78
2017-07-12T09:55:35.439Z,44.87
2017-07-12T09:56:35.174Z,45.07
2017-07-12T09:57:35.213Z,44.87
2017-07-12T09:58:35.263Z,44.87
2017-07-12T09:59:35.305Z,44.78
2017-07-12T10:00:35.352Z,44.58
2017-07-12T10:01:35.495Z,44.78
2017-07-12T10:02:35.448Z,44.97
2017-07-12T10:03:35.493Z,45.55
2017-07-12T10:04:35.544Z,45.75
2017-07-12T10:05:35.586Z,45.17
2017-07-12T10:06:35.627Z,45.26
2017-07-12T10:07:35.677Z,44.87
2017-07-12T10:08:35.725Z,44.38
2017-07-12T10:09:35.769Z,44.19
2017-07-12T10:10:35.823Z,44.09
2017-07-12T10:11:35.861Z,44.38
2017-07-12T10:12:35.908Z,44.29
2017-07-12T10:13:35.947Z,43.9
2017-07-12T10:14:35.995Z,43.49
2017-07-12T10:15:36.039Z,44.17
2017-07-12T10:16:36.084Z,44.07
2017-07-12T10:17:36.137Z,44.34
2017-07-12T10:18:36.178Z,44.15
2017-07-12T10:19:36.222Z,43.86
2017-07-12T10:20:36.271Z,44.15
2017-07-12T10:21:36.313Z,43.86
2017-07-12T10:22:36.358Z,43.84
2017-07-12T10:23:36.403Z,44.03
2017-07-12T10:24:36.452Z,44.23
2017-07-12T10:25:36.523Z,44.81
2017-07-12T10:26:36.540Z,45
2017-07-12T10:27:36.661Z,45.1
2017-07-12T10:28:36.640Z,44.71
2017-07-12T10:29:36.685Z,44.51
2017-07-12T10:30:36.723Z,44.42
2017-07-12T10:31:36.761Z,44.32
2017-07-12T10:32:36.810Z,44.78
2017-07-12T10:33:36.850Z,44.59
2017-07-12T10:34:36.900Z,44.68
2017-07-12T10:35:36.943Z,44.68
2017-07-12T10:36:37.300Z,44.88
2017-07-12T10:37:37.027Z,45.64
2017-07-12T10:38:37.072Z,45.34
2017-07-12T10:39:37.115Z,45.37
2017-07-12T10:40:37.165Z,45.17
2017-07-12T10:41:37.204Z,45.27
2017-07-12T10:42:37.255Z,45.27
2017-07-12T10:43:37.296Z,45.56
2017-07-12T10:44:37.345Z,44.81
2017-07-12T10:45:37.388Z,45
2017-07-12T10:46:37.432Z,44.92
2017-07-12T10:47:37.474Z,44.73
2017-07-12T10:48:37.523Z,44.56
2017-07-12T10:49:37.570Z,43.98
2017-07-12T10:50:37.614Z,43.68
2017-07-12T10:51:37.655Z,43.9
2017-07-12T10:52:37.706Z,44.29
2017-07-12T10:53:37.746Z,43.8
2017-07-12T10:54:37.791Z,43.61
2017-07-12T10:55:37.840Z,43.12
2017-07-12T10:56:37.888Z,43.12
2017-07-12T10:57:37.931Z,43.2
2017-07-12T10:58:37.978Z,43.4
2017-07-12T10:59:38.016Z,42.61
2017-07-12T11:00:38.067Z,42.89
2017-07-12T11:01:38.106Z,42.99
2017-07-12T11:02:38.156Z,43.16
2017-07-12T11:03:38.201Z,42.96
2017-07-12T11:04:38.240Z,43.06
2017-07-12T11:05:38.292Z,43.45
2017-07-12T11:06:38.330Z,43.16
2017-07-12T11:07:38.378Z,43.23
2017-07-12T11:08:38.424Z,43.23
2017-07-12T11:09:38.469Z,43.13
2017-07-12T11:10:38.511Z,43.43
2017-07-12T11:11:38.552Z,44.01
2017-07-12T11:12:38.600Z,43.91
2017-07-12T11:13:38.639Z,43.72
2017-07-12T11:14:38.689Z,44.01
2017-07-12T11:15:38.732Z,43.62
2017-07-12T11:16:38.773Z,44.18
2017-07-12T11:17:38.819Z,43.99
2017-07-12T11:18:38.858Z,43.58
2017-07-12T11:19:38.902Z,43.58
2017-07-12T11:20:38.950Z,43.77
2017-07-12T11:21:38.989Z,43.96
2017-07-12T11:22:39.036Z,44.16
2017-07-12T11:23:39.076Z,43.58
2017-07-12T11:24:39.120Z,43.95
2017-07-12T11:25:39.165Z,44.33
2017-07-12T11:26:39.210Z,44.13
2017-07-12T11:27:39.249Z,44.53
2017-07-12T11:28:39.294Z,44.53
2017-07-12T11:29:39.338Z,45.4
2017-07-12T11:30:39.380Z,45.49
2017-07-12T11:31:39.420Z,45.3
2017-07-12T11:32:39.466Z,44.89
2017-07-12T11:33:39.506Z,45.3
2017-07-12T11:34:39.552Z,45.3
2017-07-12T11:35:39.589Z,45.68
2017-07-12T11:36:39.638Z,45.98
2017-07-12T11:37:39.681Z,45.88
2017-07-12T11:38:39.719Z,46.36
2017-07-12T11:39:39.767Z,46.36
2017-07-12T11:40:39.808Z,46.36
2017-07-12T11:41:39.848Z,46.56
2017-07-12T11:42:39.896Z,46.94
2017-07-12T11:43:39.938Z,46.63
2017-07-12T11:44:39.975Z,46.92
2017-07-12T11:45:40.024Z,47.02
2017-07-12T11:46:40.060Z,47.99
2017-07-12T11:47:40.103Z,47.79
2017-07-12T11:48:40.152Z,47.69
2017-07-12T11:49:40.189Z,48.37
2017-07-12T11:50:40.236Z,48.18
2017-07-12T11:51:40.272Z,48.27
2017-07-12T11:52:40.320Z,49.05
2017-07-12T11:53:40.358Z,49.24
2017-07-12T11:54:40.405Z,49.05
2017-07-12T11:55:40.447Z,49.05
2017-07-12T11:56:40.487Z,49.6
2017-07-12T11:57:40.533Z,49.41
2017-07-12T11:58:40.574Z,50.31
2017-07-12T11:59:40.617Z,50.28
2017-07-12T12:00:40.654Z,50.76
2017-07-12T12:01:40.702Z,50.67
2017-07-12T12:02:40.745Z,51.44
2017-07-12T12:03:40.788Z,50.76
2017-07-12T12:04:40.829Z,51.15
2017-07-12T12:05:40.873Z,51.54
2017-07-12T12:06:40.907Z,52.12
2017-07-12T12:07:40.956Z,52.41
2017-07-12T12:08:40.998Z,52.51
2017-07-12T12:09:41.035Z,52.7
2017-07-12T12:10:41.081Z,53.47
2017-07-12T12:11:41.125Z,53.25
2017-07-12T12:12:41.160Z,53.74
2017-07-12T12:13:41.209Z,53.93
2017-07-12T12:14:41.245Z,54.22
2017-07-12T12:15:41.293Z,54.41
2017-07-12T12:16:41.335Z,54.97
2017-07-12T12:17:41.371Z,55.16
2017-07-12T12:18:41.418Z,55.35
2017-07-12T12:19:41.459Z,55.65
2017-07-12T12:20:41.497Z,56.32
2017-07-12T12:21:41.550Z,56.41
2017-07-12T12:22:41.583Z,56.41
2017-07-12T12:23:41.621Z,57.48
2017-07-12T12:24:41.671Z,57.67
2017-07-12T12:25:41.710Z,57.77
2017-07-12T12:26:41.748Z,57.96
2017-07-12T12:27:41.796Z,57.77
2017-07-12T12:28:41.833Z,58.12
2017-07-12T12:29:41.880Z,59.19
2017-07-12T12:30:41.915Z,59
2017-07-12T12:31:41.965Z,59.28
2017-07-12T12:32:42.000Z,60.16
2017-07-12T12:33:42.044Z,59.86
2017-07-12T12:34:42.086Z,60.73
2017-07-12T12:35:42.122Z,60.73
2017-07-12T12:36:42.171Z,61.22
2017-07-12T12:37:42.205Z,61.89
2017-07-12T12:38:42.253Z,62.28
2017-07-12T12:39:42.288Z,62.05
2017-07-12T12:40:42.336Z,62.34
2017-07-12T12:41:42.376Z,62.63
2017-07-12T12:42:42.416Z,63.12
2017-07-12T12:43:42.460Z,63.5
2017-07-12T12:44:42.497Z,63.4
2017-07-12T12:45:42.543Z,64.28
2017-07-12T12:46:42.580Z,63.79
2017-07-12T12:47:42.626Z,64.66
2017-07-12T12:48:42.662Z,64.56
2017-07-12T12:49:42.706Z,65.4
2017-07-12T12:50:42.742Z,65.2
2017-07-12T12:51:43.103Z,65.69
2017-07-12T12:52:42.833Z,65.98
2017-07-12T12:53:42.868Z,66.17
2017-07-12T12:54:42.916Z,66.56
2017-07-12T12:55:42.950Z,66.14
2017-07-12T12:56:43.344Z,67.33
2017-07-12T12:57:43.035Z,66.91
2017-07-12T12:58:43.081Z,67.2
2017-07-12T12:59:43.120Z,67.88
2017-07-12T13:00:43.161Z,68.07
2017-07-12T13:01:43.197Z,68.07
2017-07-12T13:02:43.242Z,68.26
2017-07-12T13:03:43.283Z,68.74
2017-07-12T13:04:43.320Z,68.84